createdAt,value
2022-09-07T00:00:50.181Z,24.40
2022-09-07T00:03:19.604Z,22.60
2022-09-07T00:05:49.675Z,25.20
2022-09-07T00:08:18.251Z,28.00
2022-09-07T00:11:17.448Z,25.40
2022-09-07T00:13:45.934Z,22.30
2022-09-07T00:16:15.725Z,22.10
2022-09-07T00:18:46.401Z,23.70
2022-09-07T00:21:14.429Z,24.80
2022-09-07T00:23:42.058Z,21.30
2022-09-07T00:26:14.654Z,23.20
2022-09-07T00:28:42.328Z,25.30
2022-09-07T00:31:11.455Z,25.00
2022-09-07T00:36:06.779Z,19.70
2022-09-07T00:38:34.203Z,23.50
2022-09-07T00:41:01.742Z,22.80
2022-09-07T00:43:37.785Z,22.90
2022-09-07T00:48:54.847Z,20.50
2022-09-07T00:51:27.586Z,19.50
2022-09-07T00:54:09.414Z,19.50
2022-09-07T00:56:39.357Z,19.40
2022-09-07T00:59:08.597Z,17.50
2022-09-07T01:01:36.471Z,20.70
2022-09-07T01:04:04.183Z,18.10
2022-09-07T01:06:33.548Z,19.70
2022-09-07T01:11:31.454Z,20.50
2022-09-07T01:13:59.226Z,20.50
2022-09-07T01:16:45.118Z,18.80
2022-09-07T01:19:27.360Z,21.30
2022-09-07T01:22:16.280Z,20.10
2022-09-07T01:25:04.912Z,24.00
2022-09-07T01:27:51.060Z,19.70
2022-09-07T01:30:19.128Z,20.10
2022-09-07T01:33:15.043Z,20.60
2022-09-07T01:35:48.898Z,20.10
2022-09-07T01:38:25.377Z,19.80
2022-09-07T01:41:16.052Z,22.00
2022-09-07T01:43:45.742Z,20.20
2022-09-07T01:46:21.362Z,20.90
2022-09-07T01:48:49.852Z,19.00
2022-09-07T01:51:17.305Z,22.00
2022-09-07T01:53:49.878Z,20.20
2022-09-07T01:56:36.812Z,21.20
2022-09-07T01:59:05.971Z,18.70
2022-09-07T02:01:58.892Z,20.00
2022-09-07T02:04:31.616Z,21.10
2022-09-07T02:07:26.735Z,15.50
2022-09-07T02:10:10.795Z,14.40
2022-09-07T02:12:49.020Z,13.10
2022-09-07T02:15:22.980Z,14.90
2022-09-07T02:17:54.368Z,17.90
2022-09-07T02:20:31.408Z,19.50
2022-09-07T02:23:01.127Z,17.80
2022-09-07T02:25:32.354Z,17.20
2022-09-07T02:28:04.752Z,18.60
2022-09-07T02:30:32.708Z,18.00
2022-09-07T02:33:00.079Z,18.50
2022-09-07T02:35:28.780Z,18.30
2022-09-07T02:37:56.032Z,17.20
2022-09-07T02:40:23.340Z,18.10
2022-09-07T02:42:51.864Z,18.70
2022-09-07T02:45:19.187Z,18.30
2022-09-07T02:48:11.708Z,23.30
2022-09-07T02:50:46.348Z,17.40
2022-09-07T02:53:23.000Z,15.50
2022-09-07T02:55:59.193Z,17.40
2022-09-07T02:58:45.924Z,18.80
2022-09-07T03:01:22.380Z,20.70
2022-09-07T03:04:19.007Z,18.90
2022-09-07T03:06:49.779Z,18.20
2022-09-07T03:09:20.467Z,19.00
2022-09-07T03:11:47.918Z,14.40
2022-09-07T03:14:20.049Z,14.30
2022-09-07T03:16:48.655Z,12.50
2022-09-07T03:19:15.867Z,13.30
2022-09-07T03:21:43.281Z,13.30
2022-09-07T03:24:10.707Z,11.40
2022-09-07T03:26:43.255Z,12.50
2022-09-07T03:29:10.469Z,16.30
2022-09-07T03:31:38.074Z,19.80
2022-09-07T03:34:05.380Z,18.90
2022-09-07T03:36:32.967Z,15.70
2022-09-07T03:39:00.634Z,16.30
2022-09-07T03:41:28.529Z,15.60
2022-09-07T03:43:55.858Z,15.10
2022-09-07T03:46:23.261Z,13.80
2022-09-07T03:48:50.596Z,15.20
2022-09-07T03:51:19.392Z,15.20
2022-09-07T03:53:47.661Z,12.10
2022-09-07T03:56:22.464Z,14.70
2022-09-07T03:58:50.284Z,17.60
2022-09-07T04:01:19.778Z,14.30
2022-09-07T04:03:48.059Z,13.40
2022-09-07T04:06:15.986Z,13.50
2022-09-07T04:08:43.511Z,13.90
2022-09-07T04:11:15.241Z,14.80
2022-09-07T04:13:43.013Z,12.90
2022-09-07T04:16:18.518Z,9.70
2022-09-07T04:18:46.619Z,7.40
2022-09-07T04:21:13.879Z,8.40
2022-09-07T04:23:41.809Z,11.60
2022-09-07T04:26:19.830Z,10.70
2022-09-07T04:28:47.173Z,10.90
2022-09-07T04:31:15.962Z,10.30
2022-09-07T04:34:35.216Z,11.40
2022-09-07T04:37:02.418Z,8.20
2022-09-07T04:39:29.854Z,11.40
2022-09-07T04:41:57.210Z,9.10
2022-09-07T04:44:24.661Z,7.70
2022-09-07T04:46:52.094Z,6.20
2022-09-07T04:49:20.934Z,7.80
2022-09-07T04:51:48.234Z,7.90
2022-09-07T04:54:15.427Z,7.40
2022-09-07T04:56:43.377Z,8.80
2022-09-07T04:59:10.479Z,10.00
2022-09-07T05:01:38.866Z,7.80
2022-09-07T05:04:06.421Z,7.80
2022-09-07T05:06:34.323Z,9.70
2022-09-07T05:09:02.089Z,8.20
2022-09-07T05:11:30.101Z,4.80
2022-09-07T05:13:58.966Z,6.40
2022-09-07T05:16:26.844Z,6.30
2022-09-07T05:18:59.069Z,6.40
2022-09-07T05:21:28.197Z,7.00
2022-09-07T05:23:56.210Z,7.80
2022-09-07T05:26:25.175Z,6.00
2022-09-07T05:28:52.703Z,5.70
2022-09-07T05:31:21.480Z,5.30
2022-09-07T05:36:38.114Z,4.60
2022-09-07T05:39:05.756Z,7.00
2022-09-07T05:41:33.029Z,4.10
2022-09-07T05:46:52.404Z,3.80
2022-09-07T05:49:19.971Z,3.70
2022-09-07T05:51:49.819Z,5.30
2022-09-07T05:54:17.428Z,5.00
2022-09-07T05:56:44.584Z,4.50
2022-09-07T05:59:11.830Z,3.40
2022-09-07T06:01:39.180Z,4.80
2022-09-07T06:04:06.454Z,4.00
2022-09-07T06:06:38.482Z,4.30
2022-09-07T06:09:06.044Z,3.80
2022-09-07T06:11:33.631Z,2.30
2022-09-07T06:14:00.829Z,2.60
2022-09-07T06:16:29.795Z,3.60
2022-09-07T06:18:58.037Z,4.50
2022-09-07T06:21:25.413Z,3.60
2022-09-07T06:23:54.153Z,5.30
2022-09-07T06:26:21.571Z,4.80
2022-09-07T06:28:53.780Z,4.80
2022-09-07T06:31:24.227Z,5.70
2022-09-07T06:33:51.662Z,4.40
2022-09-07T06:36:23.651Z,4.40
2022-09-07T06:38:51.475Z,3.60
2022-09-07T06:44:08.003Z,4.40
2022-09-07T06:49:25.280Z,5.40
2022-09-07T06:57:09.515Z,3.90
2022-09-07T07:02:05.324Z,3.60
2022-09-07T07:04:37.662Z,5.30
2022-09-07T07:07:12.374Z,4.10
2022-09-07T07:09:40.199Z,4.60
2022-09-07T07:12:07.615Z,3.20
2022-09-07T07:14:38.223Z,3.10
2022-09-07T07:17:06.686Z,7.20
2022-09-07T07:19:33.968Z,3.00
2022-09-07T07:22:14.451Z,3.00
2022-09-07T07:24:49.118Z,1.90
2022-09-07T07:27:16.762Z,1.90
2022-09-07T07:29:43.995Z,2.60
2022-09-07T07:32:11.387Z,2.50
2022-09-07T07:34:38.618Z,3.10
2022-09-07T07:37:06.307Z,2.00
2022-09-07T07:42:21.269Z,3.30
2022-09-07T07:44:48.684Z,2.10
2022-09-07T07:47:16.027Z,1.80
2022-09-07T07:49:43.236Z,1.90
2022-09-07T07:54:58.789Z,2.50
2022-09-07T07:57:26.648Z,3.90
2022-09-07T07:59:56.699Z,5.00
2022-09-07T08:02:23.882Z,1.00
2022-09-07T08:04:51.329Z,1.30
2022-09-07T08:07:19.464Z,1.40
2022-09-07T08:09:47.849Z,2.70
2022-09-07T08:12:19.056Z,0.80
2022-09-07T08:14:49.180Z,1.30
2022-09-07T08:17:17.222Z,2.50
2022-09-07T08:19:44.780Z,8.00
2022-09-07T08:22:12.167Z,3.80
2022-09-07T08:24:39.580Z,1.80
2022-09-07T08:27:07.748Z,1.70
2022-09-07T08:29:35.690Z,2.60
2022-09-07T08:32:05.125Z,1.60
2022-09-07T08:34:50.869Z,3.80
2022-09-07T08:37:18.619Z,0.70
2022-09-07T08:39:45.902Z,0.80
2022-09-07T08:42:31.940Z,3.80
2022-09-07T08:45:21.585Z,2.20
2022-09-07T08:47:50.530Z,2.20
2022-09-07T08:50:25.102Z,1.20
2022-09-07T08:52:57.064Z,1.40
2022-09-07T08:55:31.139Z,0.90
2022-09-07T08:58:04.501Z,3.50
2022-09-07T09:00:31.619Z,1.50
2022-09-07T09:06:09.752Z,1.60
2022-09-07T09:08:59.649Z,2.30
2022-09-07T09:11:49.692Z,2.30
2022-09-07T09:14:46.796Z,1.40
2022-09-07T09:17:30.862Z,1.20
2022-09-07T09:20:04.931Z,2.40
2022-09-07T09:22:32.531Z,1.10
2022-09-07T09:25:21.004Z,2.40
2022-09-07T09:27:49.103Z,1.40
2022-09-07T09:30:18.908Z,1.00
2022-09-07T09:32:47.522Z,2.10
2022-09-07T09:35:27.021Z,1.40
2022-09-07T09:37:54.270Z,2.10
2022-09-07T09:40:27.471Z,1.20
2022-09-07T09:43:05.777Z,2.80
2022-09-07T09:48:33.957Z,1.20
2022-09-07T09:54:01.862Z,1.40
2022-09-07T09:56:42.650Z,1.70
2022-09-07T10:05:27.861Z,2.40
2022-09-07T10:07:56.682Z,1.70
2022-09-07T10:10:27.919Z,2.00
2022-09-07T10:12:56.011Z,5.40
2022-09-07T10:15:34.432Z,3.70
2022-09-07T10:18:06.208Z,1.40
2022-09-07T10:20:37.902Z,1.70
2022-09-07T10:23:06.140Z,2.00
2022-09-07T10:25:37.934Z,1.80
2022-09-07T10:28:14.398Z,1.70
2022-09-07T10:31:12.429Z,1.90
2022-09-07T10:34:26.260Z,3.20
2022-09-07T10:37:35.730Z,1.60
2022-09-07T10:40:42.611Z,1.20
2022-09-07T10:43:22.359Z,2.20
2022-09-07T10:45:56.152Z,1.20
2022-09-07T10:48:44.755Z,1.10
2022-09-07T10:51:23.581Z,1.30
2022-09-07T10:57:27.707Z,1.30
2022-09-07T11:00:08.491Z,2.40
2022-09-07T11:06:15.775Z,3.40
2022-09-07T11:12:05.527Z,2.10
2022-09-07T11:14:41.292Z,1.60
2022-09-07T11:17:23.620Z,2.60
2022-09-07T11:19:53.208Z,6.00
2022-09-07T11:22:39.218Z,2.00
2022-09-07T11:25:33.055Z,1.80
2022-09-07T11:28:25.826Z,2.30
2022-09-07T11:31:00.449Z,2.00
2022-09-07T11:33:29.747Z,1.60
2022-09-07T11:36:02.769Z,2.40
2022-09-07T11:38:31.369Z,2.40
2022-09-07T11:41:04.328Z,2.10
2022-09-07T11:43:43.821Z,1.90
2022-09-07T11:46:14.397Z,2.30
2022-09-07T11:48:55.578Z,2.10
2022-09-07T11:51:39.276Z,2.60
2022-09-07T11:54:33.951Z,3.50
2022-09-07T11:57:04.059Z,2.10
2022-09-07T11:59:52.414Z,2.20
2022-09-07T12:03:00.567Z,5.20
2022-09-07T12:05:49.574Z,4.20
2022-09-07T12:08:32.488Z,2.00
2022-09-07T12:11:32.084Z,1.50
2022-09-07T12:14:28.952Z,4.00
2022-09-07T12:17:15.189Z,3.40
2022-09-07T12:19:42.996Z,2.70
2022-09-07T12:22:23.272Z,1.40
2022-09-07T12:24:54.103Z,2.90
2022-09-07T12:27:21.184Z,1.80
2022-09-07T12:29:49.639Z,2.10
2022-09-07T12:35:41.811Z,4.60
2022-09-07T12:38:18.180Z,2.30
2022-09-07T12:41:00.890Z,3.40
2022-09-07T12:43:31.426Z,2.70
2022-09-07T12:46:00.890Z,1.80
2022-09-07T12:48:33.732Z,4.20
2022-09-07T12:54:35.778Z,2.00
2022-09-07T13:00:07.233Z,2.40
2022-09-07T13:02:56.745Z,2.90
2022-09-07T13:05:39.342Z,3.50
2022-09-07T13:08:33.281Z,2.50
2022-09-07T13:11:30.858Z,1.70
2022-09-07T13:14:03.711Z,3.00
2022-09-07T13:17:15.924Z,1.60
2022-09-07T13:19:50.667Z,2.30
2022-09-07T13:22:32.861Z,2.60
2022-09-07T13:25:26.343Z,2.30
2022-09-07T13:28:00.990Z,4.00
2022-09-07T13:30:37.027Z,2.70
2022-09-07T13:33:29.768Z,4.90
2022-09-07T13:36:01.526Z,2.60
2022-09-07T13:38:29.937Z,2.80
2022-09-07T13:41:20.062Z,4.00
2022-09-07T13:43:48.977Z,4.50
2022-09-07T13:46:50.309Z,2.70
2022-09-07T13:49:20.108Z,3.80
2022-09-07T13:51:55.055Z,3.40
2022-09-07T13:54:56.443Z,4.10
2022-09-07T13:57:41.865Z,3.70
2022-09-07T14:00:15.646Z,5.10
2022-09-07T14:02:43.255Z,4.30
2022-09-07T14:05:11.761Z,3.20
2022-09-07T14:07:45.595Z,3.70
2022-09-07T14:10:19.768Z,4.40
2022-09-07T14:12:51.591Z,6.70
2022-09-07T14:15:34.460Z,4.20
2022-09-07T14:18:06.350Z,4.80
2022-09-07T14:20:41.045Z,7.50
2022-09-07T14:23:32.725Z,5.10
2022-09-07T14:26:20.371Z,5.10
2022-09-07T14:28:48.877Z,9.60
2022-09-07T14:33:50.199Z,7.90
2022-09-07T14:36:41.602Z,9.30
2022-09-07T14:39:06.015Z,8.20
2022-09-07T14:41:34.832Z,8.90
2022-09-07T14:44:02.526Z,7.60
2022-09-07T14:46:33.317Z,7.30
2022-09-07T14:49:07.768Z,8.20
2022-09-07T14:51:36.791Z,8.20
2022-09-07T14:54:05.968Z,7.00
2022-09-07T14:56:38.568Z,5.60
2022-09-07T14:59:44.978Z,5.00
2022-09-07T15:02:18.425Z,4.60
2022-09-07T15:04:46.783Z,6.50
2022-09-07T15:07:29.836Z,4.80
2022-09-07T15:10:21.062Z,4.40
2022-09-07T15:15:30.687Z,4.60
2022-09-07T15:18:05.867Z,5.50
2022-09-07T15:20:43.265Z,4.90
2022-09-07T15:23:14.270Z,4.20
2022-09-07T15:25:45.398Z,5.40
2022-09-07T15:34:14.440Z,5.00
2022-09-07T15:36:48.743Z,3.90
2022-09-07T15:39:25.014Z,4.20
2022-09-07T15:41:53.413Z,6.30
2022-09-07T15:44:25.292Z,3.80
2022-09-07T15:49:46.005Z,6.40
2022-09-07T15:52:15.307Z,4.90
2022-09-07T15:54:43.498Z,4.70
2022-09-07T15:59:58.631Z,6.10
2022-09-07T16:05:13.896Z,4.30
2022-09-07T16:10:31.570Z,3.40
2022-09-07T16:13:01.816Z,5.50
2022-09-07T16:15:30.697Z,4.40
2022-09-07T16:17:58.647Z,4.90
2022-09-07T16:20:26.856Z,3.80
2022-09-07T16:25:42.412Z,4.30
2022-09-07T16:28:09.807Z,4.70
2022-09-07T16:30:39.532Z,5.80
2022-09-07T16:33:06.885Z,12.50
2022-09-07T16:35:34.225Z,51.60
2022-09-07T16:40:51.155Z,184.40
2022-09-07T16:43:19.098Z,162.50
2022-09-07T16:48:34.766Z,122.20
2022-09-07T16:51:05.550Z,102.10
2022-09-07T16:53:34.702Z,61.40
2022-09-07T16:56:02.786Z,39.20
2022-09-07T16:58:37.683Z,23.50
2022-09-07T17:01:10.126Z,18.00
2022-09-07T17:03:37.879Z,15.10
2022-09-07T17:06:06.808Z,14.50
2022-09-07T17:08:34.789Z,11.10
2022-09-07T17:11:03.636Z,15.60
2022-09-07T17:13:32.163Z,17.90
2022-09-07T17:21:21.867Z,74.20
2022-09-07T17:23:54.924Z,114.70
2022-09-07T17:26:26.234Z,102.50
2022-09-07T17:28:56.672Z,95.00
2022-09-07T17:34:17.100Z,57.70
2022-09-07T17:36:44.757Z,64.20
2022-09-07T17:39:16.733Z,41.00
2022-09-07T17:41:45.775Z,39.10
2022-09-07T17:44:13.791Z,34.30
2022-09-07T17:46:40.828Z,26.00
2022-09-07T17:49:16.930Z,28.10
2022-09-07T17:51:44.949Z,22.10
2022-09-07T17:54:14.854Z,26.40
2022-09-07T17:56:42.418Z,28.40
2022-09-07T18:01:57.307Z,40.10
2022-09-07T18:04:24.705Z,43.40
2022-09-07T18:06:53.331Z,39.90
2022-09-07T18:09:20.704Z,51.40
2022-09-07T18:11:50.054Z,70.20
2022-09-07T18:14:18.609Z,73.40
2022-09-07T18:16:46.619Z,76.60
2022-09-07T18:19:13.912Z,70.60
2022-09-07T18:21:42.509Z,63.70
2022-09-07T18:24:18.702Z,68.40
2022-09-07T18:26:50.643Z,76.10
2022-09-07T18:29:34.365Z,71.80
2022-09-07T18:32:04.627Z,60.90
2022-09-07T18:34:33.339Z,60.80
2022-09-07T18:37:00.838Z,74.90
2022-09-07T18:39:28.304Z,70.70
2022-09-07T18:41:55.926Z,69.90
2022-09-07T18:47:23.399Z,72.30
2022-09-07T18:49:55.250Z,68.10
2022-09-07T18:55:10.544Z,66.00
2022-09-07T18:57:38.192Z,61.60
2022-09-07T19:00:09.513Z,54.80
2022-09-07T19:02:38.025Z,60.60
2022-09-07T19:07:53.746Z,51.40
2022-09-07T19:10:20.882Z,56.30
2022-09-07T19:12:48.320Z,55.70
2022-09-07T19:15:16.018Z,52.90
2022-09-07T19:17:44.132Z,51.10
2022-09-07T19:20:11.434Z,54.90
2022-09-07T19:22:39.358Z,51.60
2022-09-07T19:25:07.130Z,54.10
2022-09-07T19:27:34.765Z,52.70
2022-09-07T19:30:02.028Z,56.40
2022-09-07T19:32:29.851Z,53.30
2022-09-07T19:34:57.001Z,50.80
2022-09-07T19:37:25.762Z,59.00
2022-09-07T19:39:56.896Z,59.30
2022-09-07T19:42:24.606Z,73.80
2022-09-07T19:44:52.647Z,81.80
2022-09-07T19:47:20.994Z,67.60
2022-09-07T19:49:48.002Z,62.20
2022-09-07T19:52:15.515Z,52.50
2022-09-07T19:54:43.288Z,57.40
2022-09-07T19:57:10.414Z,54.60
2022-09-07T19:59:37.895Z,53.60
2022-09-07T20:02:06.377Z,51.80
2022-09-07T20:04:33.681Z,54.40
2022-09-07T20:07:00.990Z,56.40
2022-09-07T20:09:29.068Z,64.80
2022-09-07T20:11:56.813Z,66.80
2022-09-07T20:14:23.983Z,62.90
2022-09-07T20:16:51.519Z,73.00
2022-09-07T20:19:18.940Z,76.10
2022-09-07T20:21:46.147Z,71.80
2022-09-07T20:24:14.823Z,62.80
2022-09-07T20:26:41.921Z,65.30
2022-09-07T20:29:27.315Z,61.40
2022-09-07T20:31:57.531Z,59.40
2022-09-07T20:34:25.421Z,57.40
2022-09-07T20:36:52.584Z,55.80
2022-09-07T20:39:20.529Z,53.20
2022-09-07T20:41:47.793Z,50.20
2022-09-07T20:44:15.923Z,51.70
2022-09-07T20:46:44.610Z,49.80
2022-09-07T20:49:12.208Z,48.00
2022-09-07T20:51:40.109Z,51.10
2022-09-07T20:54:07.733Z,48.40
2022-09-07T20:56:36.005Z,49.80
2022-09-07T20:59:03.324Z,52.80
2022-09-07T21:01:31.468Z,53.00
2022-09-07T21:04:00.582Z,50.60
2022-09-07T21:06:29.025Z,49.10
2022-09-07T21:08:59.243Z,50.40
2022-09-07T21:11:34.877Z,53.90
2022-09-07T21:14:06.573Z,46.10
2022-09-07T21:16:35.923Z,48.50
2022-09-07T21:19:04.788Z,50.20
2022-09-07T21:21:38.870Z,46.10
2022-09-07T21:24:07.572Z,48.90
2022-09-07T21:26:35.174Z,46.30
2022-09-07T21:29:05.088Z,50.30
2022-09-07T21:31:33.643Z,43.80
2022-09-07T21:34:01.802Z,37.70
2022-09-07T21:36:29.421Z,40.80
2022-09-07T21:38:56.973Z,38.50
2022-09-07T21:41:24.832Z,42.70
2022-09-07T21:43:56.280Z,38.50
2022-09-07T21:46:23.841Z,43.40
2022-09-07T21:48:51.070Z,40.70
2022-09-07T21:51:18.559Z,36.90
2022-09-07T21:53:48.347Z,36.00
2022-09-07T21:56:15.676Z,36.10
2022-09-07T21:58:43.788Z,35.00
2022-09-07T22:01:12.639Z,34.50
2022-09-07T22:03:43.199Z,32.90
2022-09-07T22:06:11.018Z,31.70
2022-09-07T22:08:38.947Z,30.50
2022-09-07T22:11:07.855Z,28.40
2022-09-07T22:13:35.571Z,21.90
2022-09-07T22:16:04.982Z,22.60
2022-09-07T22:18:32.237Z,22.80
2022-09-07T22:21:07.176Z,20.70
2022-09-07T22:23:36.617Z,19.70
2022-09-07T22:28:31.284Z,16.90
2022-09-07T22:31:26.975Z,16.70
2022-09-07T22:33:54.800Z,21.20
2022-09-07T22:36:26.094Z,15.90
2022-09-07T22:38:54.338Z,15.50
2022-09-07T22:41:26.160Z,21.10
2022-09-07T22:43:53.378Z,15.20
2022-09-07T22:46:21.646Z,17.50
2022-09-07T22:48:49.564Z,16.30
2022-09-07T22:51:17.086Z,14.90
2022-09-07T22:53:44.730Z,13.60
2022-09-07T22:56:14.284Z,12.10
2022-09-07T22:58:45.986Z,14.90
2022-09-07T23:01:13.150Z,13.60
2022-09-07T23:03:40.643Z,10.30
2022-09-07T23:06:08.794Z,11.80
2022-09-07T23:08:36.588Z,11.30
2022-09-07T23:11:07.763Z,13.40
2022-09-07T23:13:35.080Z,9.90
2022-09-07T23:16:06.273Z,10.20
2022-09-07T23:18:33.859Z,11.80
2022-09-07T23:21:01.548Z,13.70
2022-09-07T23:23:28.862Z,14.70
2022-09-07T23:25:56.196Z,11.20
2022-09-07T23:28:23.459Z,11.80
2022-09-07T23:30:51.642Z,9.60
2022-09-07T23:33:19.026Z,8.20
2022-09-07T23:36:05.036Z,6.80
2022-09-07T23:38:32.518Z,6.60
2022-09-07T23:41:00.355Z,11.00
2022-09-07T23:43:28.117Z,8.80
2022-09-07T23:45:55.743Z,10.00
2022-09-07T23:48:23.336Z,10.20
2022-09-07T23:50:50.647Z,9.00
2022-09-07T23:53:18.253Z,9.80
2022-09-07T23:55:46.675Z,10.80
2022-09-07T23:58:13.848Z,10.00
